createdAt,value
2023-01-30T00:01:16.832Z,34.85
2023-01-30T00:02:53.169Z,27.30
2023-01-30T00:04:24.791Z,29.72
2023-01-30T00:05:56.856Z,25.48
2023-01-30T00:07:28.128Z,32.74
2023-01-30T00:08:59.515Z,21.88
2023-01-30T00:10:30.767Z,22.96
2023-01-30T00:12:02.162Z,22.72
2023-01-30T00:13:33.480Z,32.28
2023-01-30T00:15:04.902Z,34.33
2023-01-30T00:16:36.345Z,31.55
2023-01-30T00:18:07.994Z,24.68
2023-01-30T00:19:39.391Z,22.34
2023-01-30T00:21:10.793Z,27.64
2023-01-30T00:23:00.770Z,24.71
2023-01-30T00:24:32.733Z,30.18
2023-01-30T00:26:13.054Z,24.73
2023-01-30T00:27:44.650Z,26.12
2023-01-30T00:29:16.045Z,20.46
2023-01-30T00:31:25.185Z,19.74
2023-01-30T00:33:34.984Z,24.62
2023-01-30T00:35:06.398Z,29.15
2023-01-30T00:36:37.727Z,27.91
2023-01-30T00:38:09.053Z,24.88
2023-01-30T00:39:40.417Z,27.84
2023-01-30T00:41:11.632Z,26.90
2023-01-30T00:42:48.102Z,27.54
2023-01-30T00:44:19.734Z,36.00
2023-01-30T00:45:51.058Z,28.27
2023-01-30T00:47:22.349Z,24.18
2023-01-30T00:48:53.878Z,18.80
2023-01-30T00:50:25.630Z,26.98
2023-01-30T00:51:57.115Z,22.61
2023-01-30T00:53:28.468Z,28.43
2023-01-30T00:54:59.926Z,26.30
2023-01-30T00:56:31.455Z,29.10
2023-01-30T00:58:02.775Z,22.17
2023-01-30T00:59:34.191Z,30.63
2023-01-30T01:01:05.490Z,42.27
2023-01-30T01:02:36.903Z,32.04
2023-01-30T01:04:09.061Z,26.63
2023-01-30T01:05:40.895Z,29.55
2023-01-30T01:07:13.785Z,26.95
2023-01-30T01:08:45.337Z,25.02
2023-01-30T01:10:17.046Z,29.17
2023-01-30T01:11:48.482Z,24.74
2023-01-30T01:13:20.079Z,23.97
2023-01-30T01:14:51.514Z,34.91
2023-01-30T01:16:23.140Z,30.23
2023-01-30T01:17:54.824Z,29.67
2023-01-30T01:19:27.051Z,34.96
2023-01-30T01:21:08.907Z,27.61
2023-01-30T01:22:40.070Z,27.71
2023-01-30T01:24:11.518Z,30.29
2023-01-30T01:25:42.699Z,22.07
2023-01-30T01:27:14.121Z,28.52
2023-01-30T01:28:45.544Z,25.90
2023-01-30T01:30:17.106Z,25.11
2023-01-30T01:31:48.862Z,26.20
2023-01-30T01:33:20.271Z,29.05
2023-01-30T01:34:51.923Z,23.42
2023-01-30T01:36:51.607Z,22.70
2023-01-30T01:38:24.098Z,26.88
2023-01-30T01:39:55.439Z,24.72
2023-01-30T01:41:26.930Z,26.14
2023-01-30T01:42:58.372Z,31.59
2023-01-30T01:44:29.856Z,28.19
2023-01-30T01:46:01.200Z,28.88
2023-01-30T01:47:32.632Z,20.48
2023-01-30T01:49:03.913Z,26.69
2023-01-30T01:50:35.157Z,30.63
2023-01-30T01:52:06.360Z,36.42
2023-01-30T01:53:38.021Z,30.78
2023-01-30T01:55:09.328Z,27.31
2023-01-30T01:56:41.001Z,19.86
2023-01-30T01:58:12.362Z,30.49
2023-01-30T01:59:43.715Z,24.41
2023-01-30T02:01:14.941Z,22.19
2023-01-30T02:02:46.139Z,24.89
2023-01-30T02:04:17.570Z,21.84
2023-01-30T02:05:48.785Z,22.48
2023-01-30T02:07:25.027Z,25.18
2023-01-30T02:08:56.544Z,26.49
2023-01-30T02:10:27.851Z,24.50
2023-01-30T02:11:59.218Z,29.48
2023-01-30T02:13:30.408Z,25.97
2023-01-30T02:15:01.760Z,25.29
2023-01-30T02:16:33.061Z,31.34
2023-01-30T02:18:09.303Z,25.19
2023-01-30T02:19:40.622Z,30.53
2023-01-30T02:21:11.919Z,26.68
2023-01-30T02:22:43.167Z,24.69
2023-01-30T02:24:14.480Z,26.33
2023-01-30T02:25:45.814Z,19.21
2023-01-30T02:27:17.124Z,19.05
2023-01-30T02:28:48.963Z,27.14
2023-01-30T02:30:20.292Z,23.28
2023-01-30T02:31:51.582Z,26.62
2023-01-30T02:33:22.816Z,33.46
2023-01-30T02:34:59.205Z,24.58
2023-01-30T02:36:30.614Z,21.35
2023-01-30T02:38:01.867Z,34.76
2023-01-30T02:39:33.496Z,36.35
2023-01-30T02:41:04.685Z,36.39
2023-01-30T02:42:36.039Z,30.99
2023-01-30T02:44:07.356Z,26.08
2023-01-30T02:45:38.865Z,33.22
2023-01-30T02:47:10.194Z,28.83
2023-01-30T02:48:41.635Z,31.01
2023-01-30T02:50:12.950Z,34.88
2023-01-30T02:51:44.191Z,25.19
2023-01-30T02:53:15.607Z,25.23
2023-01-30T02:54:47.192Z,27.94
2023-01-30T02:56:18.761Z,38.53
2023-01-30T02:57:51.435Z,30.45
2023-01-30T02:59:22.709Z,33.88
2023-01-30T03:00:54.175Z,34.31
2023-01-30T03:02:25.603Z,32.30
2023-01-30T03:03:57.067Z,43.27
2023-01-30T03:05:28.573Z,32.53
2023-01-30T03:06:59.967Z,32.72
2023-01-30T03:08:31.351Z,26.95
2023-01-30T03:10:02.974Z,39.19
2023-01-30T03:11:34.411Z,31.60
2023-01-30T03:13:05.829Z,28.05
2023-01-30T03:14:37.532Z,36.35
2023-01-30T03:16:08.817Z,33.55
2023-01-30T03:17:40.199Z,24.75
2023-01-30T03:19:11.518Z,22.09
2023-01-30T03:20:43.635Z,28.28
2023-01-30T03:22:14.905Z,23.33
2023-01-30T03:23:46.188Z,22.25
2023-01-30T03:25:22.856Z,27.78
2023-01-30T03:26:54.197Z,29.42
2023-01-30T03:28:25.574Z,21.80
2023-01-30T03:29:56.894Z,21.15
2023-01-30T03:31:28.604Z,25.40
2023-01-30T03:32:59.875Z,23.14
2023-01-30T03:34:31.414Z,22.17
2023-01-30T03:36:02.990Z,27.09
2023-01-30T03:37:34.217Z,29.39
2023-01-30T03:39:05.443Z,22.28
2023-01-30T03:40:37.016Z,33.28
2023-01-30T03:42:08.522Z,19.69
2023-01-30T03:43:40.200Z,21.45
2023-01-30T03:45:11.598Z,22.66
2023-01-30T03:46:42.902Z,26.18
2023-01-30T03:48:14.113Z,24.53
2023-01-30T03:49:45.762Z,20.52
2023-01-30T03:51:18.227Z,19.69
2023-01-30T03:52:49.647Z,21.59
2023-01-30T03:54:21.008Z,18.44
2023-01-30T03:55:52.252Z,25.99
2023-01-30T03:57:23.484Z,18.61
2023-01-30T03:58:54.914Z,22.35
2023-01-30T04:00:26.188Z,18.10
2023-01-30T04:01:57.692Z,17.28
2023-01-30T04:03:29.095Z,22.39
2023-01-30T04:05:00.351Z,21.60
2023-01-30T04:06:31.779Z,23.29
2023-01-30T04:08:03.025Z,21.24
2023-01-30T04:09:34.402Z,21.65
2023-01-30T04:11:05.588Z,22.62
2023-01-30T04:12:36.880Z,22.87
2023-01-30T04:14:08.394Z,22.12
2023-01-30T04:15:39.631Z,27.95
2023-01-30T04:17:11.226Z,21.59
2023-01-30T04:18:42.499Z,21.54
2023-01-30T04:20:13.750Z,20.65
2023-01-30T04:21:45.109Z,21.24
2023-01-30T04:23:16.560Z,16.33
2023-01-30T04:24:47.902Z,17.69
2023-01-30T04:26:19.794Z,20.93
2023-01-30T04:27:51.125Z,18.57
2023-01-30T04:29:22.379Z,17.96
2023-01-30T04:30:53.783Z,17.19
2023-01-30T04:32:25.158Z,21.09
2023-01-30T04:33:56.536Z,19.86
2023-01-30T04:35:27.838Z,26.06
2023-01-30T04:36:59.218Z,22.71
2023-01-30T04:38:30.878Z,20.39
2023-01-30T04:40:02.286Z,19.90
2023-01-30T04:41:33.680Z,20.96
2023-01-30T04:43:04.962Z,15.98
2023-01-30T04:44:36.166Z,20.86
2023-01-30T04:46:07.509Z,27.36
2023-01-30T04:47:38.812Z,19.95
2023-01-30T04:49:10.158Z,15.37
2023-01-30T04:50:41.379Z,24.90
2023-01-30T04:52:12.593Z,18.93
2023-01-30T04:53:43.871Z,18.15
2023-01-30T04:55:15.242Z,16.17
2023-01-30T04:56:46.522Z,14.00
2023-01-30T04:58:17.934Z,14.13
2023-01-30T04:59:49.391Z,14.62
2023-01-30T05:01:20.873Z,17.07
2023-01-30T05:02:52.645Z,18.25
2023-01-30T05:04:23.947Z,19.67
2023-01-30T05:05:55.550Z,19.32
2023-01-30T05:07:27.025Z,18.09
2023-01-30T05:08:58.474Z,18.18
2023-01-30T05:10:29.793Z,16.68
2023-01-30T05:12:01.270Z,12.81
2023-01-30T05:13:32.566Z,20.03
2023-01-30T05:15:03.718Z,21.36
2023-01-30T05:16:34.898Z,18.46
2023-01-30T05:18:11.149Z,14.53
2023-01-30T05:19:42.725Z,15.49
2023-01-30T05:21:14.036Z,18.03
2023-01-30T05:22:45.498Z,15.97
2023-01-30T05:24:16.756Z,19.74
2023-01-30T05:26:18.547Z,18.18
2023-01-30T05:27:50.159Z,12.55
2023-01-30T05:29:21.538Z,12.59
2023-01-30T05:30:52.808Z,12.72
2023-01-30T05:32:24.110Z,12.62
2023-01-30T05:33:55.473Z,14.41
2023-01-30T05:35:26.733Z,13.55
2023-01-30T05:36:59.225Z,13.82
2023-01-30T05:38:30.445Z,12.65
2023-01-30T05:40:01.701Z,13.84
2023-01-30T05:41:33.226Z,10.01
2023-01-30T05:43:04.739Z,11.83
2023-01-30T05:44:36.029Z,18.35
2023-01-30T05:46:07.344Z,11.39
2023-01-30T05:47:38.532Z,10.41
2023-01-30T05:49:09.872Z,11.16
2023-01-30T05:50:41.239Z,10.23
2023-01-30T05:52:12.988Z,9.97
2023-01-30T05:53:44.263Z,11.33
2023-01-30T05:55:16.223Z,10.52
2023-01-30T05:56:48.084Z,13.27
2023-01-30T05:58:19.329Z,11.52
2023-01-30T05:59:50.807Z,11.50
2023-01-30T06:01:22.067Z,10.69
2023-01-30T06:02:53.406Z,12.75
2023-01-30T06:04:24.627Z,15.86
2023-01-30T06:05:57.068Z,11.26
2023-01-30T06:07:28.347Z,12.64
2023-01-30T06:08:59.576Z,13.12
2023-01-30T06:10:30.725Z,12.62
2023-01-30T06:12:01.970Z,10.60
2023-01-30T06:13:33.267Z,12.82
2023-01-30T06:15:04.492Z,8.80
2023-01-30T06:16:35.782Z,12.84
2023-01-30T06:18:08.292Z,14.62
2023-01-30T06:19:39.553Z,12.74
2023-01-30T06:21:10.876Z,13.76
2023-01-30T06:22:42.263Z,17.96
2023-01-30T06:24:13.595Z,16.51
2023-01-30T06:25:45.166Z,23.43
2023-01-30T06:27:16.549Z,17.05
2023-01-30T06:28:47.885Z,13.31
2023-01-30T06:30:19.321Z,14.51
2023-01-30T06:31:50.807Z,16.50
2023-01-30T06:33:22.559Z,19.88
2023-01-30T06:34:54.021Z,12.32
2023-01-30T06:36:25.487Z,15.28
2023-01-30T06:37:57.001Z,18.67
2023-01-30T06:39:28.527Z,20.00
2023-01-30T06:41:04.898Z,14.11
2023-01-30T06:42:36.072Z,13.05
2023-01-30T06:44:07.605Z,16.43
2023-01-30T06:45:38.789Z,16.06
2023-01-30T06:47:10.282Z,18.43
2023-01-30T06:48:41.534Z,23.60
2023-01-30T06:50:13.276Z,21.02
2023-01-30T06:51:44.678Z,25.02
2023-01-30T06:53:18.337Z,19.82
2023-01-30T06:54:51.639Z,22.65
2023-01-30T06:56:22.853Z,18.55
2023-01-30T06:57:54.200Z,26.99
2023-01-30T06:59:25.456Z,25.71
2023-01-30T07:00:57.069Z,26.18
2023-01-30T07:02:28.787Z,24.11
2023-01-30T07:04:00.263Z,23.07
2023-01-30T07:05:31.532Z,17.19
2023-01-30T07:07:02.755Z,25.17
2023-01-30T07:08:34.151Z,30.15
2023-01-30T07:10:08.582Z,25.96
2023-01-30T07:11:40.194Z,24.62
2023-01-30T07:13:11.630Z,27.13
2023-01-30T07:14:42.917Z,19.26
2023-01-30T07:16:14.259Z,14.43
2023-01-30T07:17:45.559Z,14.74
2023-01-30T07:19:16.829Z,21.29
2023-01-30T07:20:48.313Z,17.82
2023-01-30T07:22:19.770Z,23.07
2023-01-30T07:23:51.037Z,35.04
2023-01-30T07:25:22.301Z,31.71
2023-01-30T07:26:53.575Z,30.91
2023-01-30T07:28:24.949Z,23.36
2023-01-30T07:30:01.348Z,26.81
2023-01-30T07:31:32.616Z,22.30
2023-01-30T07:33:03.938Z,17.38
2023-01-30T07:34:35.162Z,19.63
2023-01-30T07:36:06.656Z,32.43
2023-01-30T07:37:38.213Z,23.78
2023-01-30T07:39:09.468Z,28.44
2023-01-30T07:40:46.091Z,27.82
2023-01-30T07:42:17.428Z,23.50
2023-01-30T07:43:48.767Z,22.83
2023-01-30T07:45:20.212Z,27.79
2023-01-30T07:46:51.700Z,22.63
2023-01-30T07:48:23.109Z,23.16
2023-01-30T07:49:54.524Z,22.15
2023-01-30T07:51:25.782Z,28.46
2023-01-30T07:52:57.091Z,24.06
2023-01-30T07:54:28.463Z,17.38
2023-01-30T07:55:59.693Z,20.71
2023-01-30T07:57:31.404Z,15.79
2023-01-30T07:59:02.745Z,19.97
2023-01-30T08:00:34.053Z,19.36
2023-01-30T08:02:05.392Z,20.30
2023-01-30T08:03:36.629Z,23.84
2023-01-30T08:05:07.879Z,17.21
2023-01-30T08:06:39.346Z,14.01
2023-01-30T08:08:10.791Z,21.50
2023-01-30T08:09:42.017Z,17.35
2023-01-30T08:11:13.441Z,15.50
2023-01-30T08:12:44.938Z,20.72
2023-01-30T08:14:16.530Z,16.10
2023-01-30T08:15:47.760Z,15.42
2023-01-30T08:17:19.050Z,13.89
2023-01-30T08:18:50.417Z,18.38
2023-01-30T08:20:22.007Z,18.54
2023-01-30T08:21:53.648Z,19.43
2023-01-30T08:23:25.317Z,17.98
2023-01-30T08:24:56.742Z,19.70
2023-01-30T08:26:28.108Z,14.46
2023-01-30T08:27:59.510Z,14.90
2023-01-30T08:29:31.130Z,13.50
2023-01-30T08:31:02.498Z,13.17
2023-01-30T08:32:33.996Z,13.43
2023-01-30T08:34:05.679Z,19.65
2023-01-30T08:35:36.947Z,12.32
2023-01-30T08:37:08.414Z,12.94
2023-01-30T08:38:39.829Z,15.35
2023-01-30T08:40:11.205Z,13.37
2023-01-30T08:41:42.578Z,14.40
2023-01-30T08:43:13.972Z,20.35
2023-01-30T08:44:45.247Z,15.23
2023-01-30T08:46:16.589Z,18.09
2023-01-30T08:47:48.180Z,19.26
2023-01-30T08:49:19.767Z,13.38
2023-01-30T08:50:51.194Z,14.26
2023-01-30T08:52:22.412Z,14.68
2023-01-30T08:53:53.704Z,17.32
2023-01-30T08:55:24.990Z,19.30
2023-01-30T08:56:56.417Z,15.43
2023-01-30T08:58:27.760Z,13.18
2023-01-30T08:59:59.149Z,13.40
2023-01-30T09:01:30.682Z,6.67
2023-01-30T09:03:02.428Z,9.25
2023-01-30T09:04:33.664Z,11.38
2023-01-30T09:06:04.901Z,11.81
2023-01-30T09:07:36.507Z,8.35
2023-01-30T09:09:07.863Z,9.15
2023-01-30T09:10:39.402Z,12.05
2023-01-30T09:12:12.092Z,10.21
2023-01-30T09:13:43.883Z,16.73
2023-01-30T09:15:15.481Z,18.47
2023-01-30T09:16:46.803Z,14.75
2023-01-30T09:18:18.272Z,13.54
2023-01-30T09:19:49.801Z,15.31
2023-01-30T09:21:21.205Z,11.65
2023-01-30T09:22:52.482Z,11.78
2023-01-30T09:24:23.945Z,11.78
2023-01-30T09:25:55.181Z,13.47
2023-01-30T09:27:26.552Z,10.32
2023-01-30T09:28:57.837Z,14.63
2023-01-30T09:30:29.366Z,15.33
2023-01-30T09:32:00.834Z,15.16
2023-01-30T09:33:32.280Z,19.02
2023-01-30T09:35:03.704Z,18.01
2023-01-30T09:36:35.361Z,14.18
2023-01-30T09:38:06.683Z,14.17
2023-01-30T09:39:38.184Z,15.16
2023-01-30T09:41:09.620Z,15.23
2023-01-30T09:42:40.853Z,19.29
2023-01-30T09:44:12.174Z,15.79
2023-01-30T09:45:43.463Z,19.00
2023-01-30T09:47:14.750Z,15.05
2023-01-30T09:48:47.314Z,13.80
2023-01-30T09:50:18.992Z,10.47
2023-01-30T09:51:50.638Z,11.63
2023-01-30T09:53:21.948Z,16.06
2023-01-30T09:54:53.323Z,18.25
2023-01-30T09:56:24.929Z,15.31
2023-01-30T09:57:56.358Z,13.85
2023-01-30T09:59:27.826Z,17.61
2023-01-30T10:00:59.222Z,18.70
2023-01-30T10:02:30.594Z,21.05
2023-01-30T10:04:36.127Z,14.10
2023-01-30T10:06:07.393Z,18.94
2023-01-30T10:07:38.768Z,16.69
2023-01-30T10:09:10.618Z,15.02
2023-01-30T10:11:13.748Z,16.97
2023-01-30T10:12:45.613Z,15.06
2023-01-30T10:14:17.327Z,12.34
2023-01-30T10:15:48.749Z,14.56
2023-01-30T10:17:20.079Z,19.55
2023-01-30T10:18:51.365Z,16.99
2023-01-30T10:20:22.977Z,15.99
2023-01-30T10:21:54.631Z,16.51
2023-01-30T10:23:26.159Z,13.14
2023-01-30T10:24:57.532Z,12.55
2023-01-30T10:26:29.007Z,15.21
2023-01-30T10:28:00.666Z,21.53
2023-01-30T10:29:32.069Z,17.11
2023-01-30T10:31:04.509Z,15.75
2023-01-30T10:32:35.929Z,15.58
2023-01-30T10:34:07.584Z,11.83
2023-01-30T10:35:38.895Z,16.16
2023-01-30T10:37:10.152Z,15.39
2023-01-30T10:38:42.659Z,15.19
2023-01-30T10:40:13.909Z,11.77
2023-01-30T10:41:45.241Z,15.39
2023-01-30T10:43:16.519Z,12.01
2023-01-30T10:44:48.137Z,14.80
2023-01-30T10:46:19.646Z,14.60
2023-01-30T10:47:50.890Z,9.77
2023-01-30T10:49:22.353Z,15.97
2023-01-30T10:50:58.854Z,11.72
2023-01-30T10:52:30.056Z,14.68
2023-01-30T10:54:01.339Z,11.74
2023-01-30T10:55:38.635Z,16.01
2023-01-30T10:57:09.919Z,17.39
2023-01-30T10:58:41.324Z,11.53
2023-01-30T11:00:12.683Z,15.51
2023-01-30T11:01:44.245Z,13.67
2023-01-30T11:03:15.778Z,15.79
2023-01-30T11:04:47.666Z,19.73
2023-01-30T11:06:19.184Z,16.17
2023-01-30T11:07:50.745Z,18.37
2023-01-30T11:09:24.390Z,16.29
2023-01-30T11:10:56.946Z,17.03
2023-01-30T11:12:28.335Z,14.05
2023-01-30T11:13:59.668Z,16.52
2023-01-30T11:15:31.041Z,17.03
2023-01-30T11:17:07.437Z,15.19
2023-01-30T11:19:18.235Z,16.36
2023-01-30T11:20:50.662Z,19.22
2023-01-30T11:22:22.219Z,17.36
2023-01-30T11:23:53.867Z,13.16
2023-01-30T11:25:25.384Z,19.79
2023-01-30T11:26:56.761Z,12.63
2023-01-30T11:28:28.197Z,17.28
2023-01-30T11:29:59.632Z,15.12
2023-01-30T11:31:40.849Z,16.79
2023-01-30T11:33:12.943Z,22.10
2023-01-30T11:34:44.388Z,16.54
2023-01-30T11:36:15.657Z,13.43
2023-01-30T11:37:46.979Z,14.64
2023-01-30T11:39:23.378Z,17.14
2023-01-30T11:40:54.634Z,11.97
2023-01-30T11:42:26.003Z,11.34
2023-01-30T11:43:57.328Z,14.98
2023-01-30T11:45:28.688Z,13.79
2023-01-30T11:47:00.117Z,16.82
2023-01-30T11:48:34.085Z,14.91
2023-01-30T11:50:50.273Z,11.27
2023-01-30T11:52:21.727Z,12.30
2023-01-30T11:53:52.971Z,17.86
2023-01-30T11:55:24.442Z,13.62
2023-01-30T11:56:55.959Z,17.45
2023-01-30T11:58:27.338Z,14.97
2023-01-30T11:59:58.610Z,18.39
2023-01-30T12:01:29.919Z,20.93
2023-01-30T12:03:01.327Z,16.28
2023-01-30T12:04:32.770Z,19.45
2023-01-30T12:06:04.196Z,20.11
2023-01-30T12:07:35.426Z,17.89
2023-01-30T12:09:06.718Z,24.74
2023-01-30T12:10:38.100Z,24.23
2023-01-30T12:12:09.543Z,23.41
2023-01-30T12:13:41.044Z,27.09
2023-01-30T12:15:12.643Z,23.41
2023-01-30T12:16:44.196Z,25.51
2023-01-30T12:18:15.474Z,22.04
2023-01-30T12:19:46.896Z,20.49
2023-01-30T12:21:18.156Z,22.38
2023-01-30T12:22:49.628Z,26.59
2023-01-30T12:24:21.211Z,24.12
2023-01-30T12:25:52.579Z,15.38
2023-01-30T12:27:23.861Z,19.36
2023-01-30T12:28:55.331Z,17.92
2023-01-30T12:30:26.741Z,13.07
2023-01-30T12:31:58.010Z,15.35
2023-01-30T12:33:29.436Z,18.29
2023-01-30T12:35:01.048Z,14.26
2023-01-30T12:36:32.346Z,13.93
2023-01-30T12:38:03.651Z,9.75
2023-01-30T12:39:34.959Z,14.02
2023-01-30T12:41:06.434Z,15.56
2023-01-30T12:42:37.816Z,18.59
2023-01-30T12:44:09.089Z,22.52
2023-01-30T12:45:40.579Z,16.52
2023-01-30T12:47:11.940Z,15.76
2023-01-30T12:48:48.440Z,17.44
2023-01-30T12:50:20.196Z,16.78
2023-01-30T12:51:51.515Z,16.48
2023-01-30T12:53:22.862Z,14.81
2023-01-30T12:54:54.286Z,11.21
2023-01-30T12:56:25.510Z,16.40
2023-01-30T12:57:56.895Z,18.30
2023-01-30T12:59:28.285Z,17.61
2023-01-30T13:00:59.585Z,17.48
2023-01-30T13:02:30.935Z,14.37
2023-01-30T13:04:02.433Z,16.82
2023-01-30T13:05:33.831Z,17.22
2023-01-30T13:07:05.216Z,16.54
2023-01-30T13:08:36.506Z,18.93
2023-01-30T13:10:08.141Z,15.45
2023-01-30T13:11:39.614Z,17.39
2023-01-30T13:13:10.817Z,17.97
2023-01-30T13:14:47.155Z,18.99
2023-01-30T13:16:18.540Z,15.58
2023-01-30T13:17:49.820Z,12.97
2023-01-30T13:19:23.140Z,18.61
2023-01-30T13:20:57.645Z,15.48
2023-01-30T13:22:31.092Z,20.42
2023-01-30T13:24:02.363Z,18.10
2023-01-30T13:25:33.723Z,17.09
2023-01-30T13:27:05.637Z,16.49
2023-01-30T13:28:37.070Z,18.21
2023-01-30T13:30:08.542Z,13.69
2023-01-30T13:31:40.271Z,15.60
2023-01-30T13:33:11.757Z,20.16
2023-01-30T13:34:43.012Z,14.39
2023-01-30T13:36:14.384Z,16.80
2023-01-30T13:37:50.811Z,18.58
2023-01-30T13:39:22.139Z,13.08
2023-01-30T13:40:54.345Z,12.46
2023-01-30T13:42:26.018Z,16.28
2023-01-30T13:43:57.307Z,17.08
2023-01-30T13:45:28.781Z,13.17
2023-01-30T13:47:00.269Z,16.61
2023-01-30T13:48:31.982Z,10.93
2023-01-30T13:50:03.243Z,16.37
2023-01-30T13:51:34.522Z,16.56
2023-01-30T13:53:05.877Z,14.38
2023-01-30T13:54:37.304Z,17.76
2023-01-30T13:56:16.253Z,20.84
2023-01-30T13:57:59.692Z,23.29
2023-01-30T13:59:31.000Z,16.49
2023-01-30T14:01:02.378Z,14.37
2023-01-30T14:02:33.701Z,17.14
2023-01-30T14:04:05.266Z,13.50
2023-01-30T14:05:49.353Z,13.44
2023-01-30T14:07:21.037Z,14.30
2023-01-30T14:08:52.453Z,18.76
2023-01-30T14:10:28.931Z,15.18
2023-01-30T14:12:05.195Z,15.23
2023-01-30T14:13:36.511Z,17.91
2023-01-30T14:15:07.751Z,13.20
2023-01-30T14:16:39.171Z,15.45
2023-01-30T14:18:10.501Z,14.97
2023-01-30T14:19:41.983Z,12.85
2023-01-30T14:21:13.491Z,16.30
2023-01-30T14:22:45.022Z,13.59
2023-01-30T14:24:17.491Z,19.78
2023-01-30T14:25:48.860Z,10.85
2023-01-30T14:27:20.080Z,14.01
2023-01-30T14:28:51.387Z,17.80
2023-01-30T14:30:22.852Z,18.75
2023-01-30T14:31:54.412Z,15.14
2023-01-30T14:33:25.831Z,13.05
2023-01-30T14:34:57.124Z,17.76
2023-01-30T14:36:30.174Z,20.29
2023-01-30T14:38:01.471Z,17.03
2023-01-30T14:39:32.731Z,13.17
2023-01-30T14:41:04.024Z,12.30
2023-01-30T14:42:35.292Z,17.71
2023-01-30T14:44:06.602Z,14.00
2023-01-30T14:45:37.955Z,14.94
2023-01-30T14:47:40.371Z,13.00
2023-01-30T14:49:18.894Z,18.01
2023-01-30T14:50:50.304Z,13.44
2023-01-30T14:52:21.895Z,17.08
2023-01-30T14:53:58.399Z,19.26
2023-01-30T14:55:30.012Z,19.89
2023-01-30T14:57:01.652Z,19.17
2023-01-30T14:58:32.950Z,14.37
2023-01-30T15:00:15.913Z,14.09
2023-01-30T15:01:48.608Z,14.03
2023-01-30T15:03:25.056Z,14.55
2023-01-30T15:04:56.352Z,26.54
2023-01-30T15:06:27.745Z,21.35
2023-01-30T15:07:59.101Z,19.19
2023-01-30T15:09:30.754Z,16.84
2023-01-30T15:11:02.380Z,24.32
2023-01-30T15:12:33.700Z,18.30
2023-01-30T15:14:06.240Z,21.15
2023-01-30T15:15:37.572Z,13.41
2023-01-30T15:17:08.832Z,17.54
2023-01-30T15:18:40.222Z,13.21
2023-01-30T15:20:11.703Z,13.54
2023-01-30T15:21:48.316Z,16.74
2023-01-30T15:23:19.622Z,18.46
2023-01-30T15:24:50.921Z,17.84
2023-01-30T15:26:22.225Z,12.06
2023-01-30T15:27:53.466Z,18.77
2023-01-30T15:29:25.193Z,21.66
2023-01-30T15:30:56.811Z,15.08
2023-01-30T15:32:28.223Z,20.86
2023-01-30T15:33:59.519Z,20.82
2023-01-30T15:35:31.981Z,17.69
2023-01-30T15:37:03.320Z,17.62
2023-01-30T15:38:34.760Z,19.52
2023-01-30T15:40:06.091Z,22.57
2023-01-30T15:41:38.141Z,19.59
2023-01-30T15:43:10.254Z,18.29
2023-01-30T15:44:41.536Z,24.51
2023-01-30T15:46:12.829Z,21.54
2023-01-30T15:47:46.519Z,23.87
2023-01-30T15:49:17.957Z,22.09
2023-01-30T15:50:49.819Z,19.51
2023-01-30T15:52:21.392Z,22.20
2023-01-30T15:53:53.395Z,21.34
2023-01-30T15:55:24.641Z,24.32
2023-01-30T15:56:56.224Z,22.35
2023-01-30T15:58:27.590Z,22.53
2023-01-30T16:00:14.021Z,18.72
2023-01-30T16:01:55.337Z,23.90
2023-01-30T16:03:36.809Z,23.31
2023-01-30T16:05:13.264Z,22.62
2023-01-30T16:06:50.236Z,20.82
2023-01-30T16:08:21.639Z,21.72
2023-01-30T16:10:06.431Z,22.25
2023-01-30T16:11:38.818Z,18.90
2023-01-30T16:13:21.109Z,19.91
2023-01-30T16:14:52.536Z,22.64
2023-01-30T16:16:49.078Z,21.80
2023-01-30T16:18:20.694Z,25.28
2023-01-30T16:19:57.395Z,25.15
2023-01-30T16:21:29.151Z,24.38
2023-01-30T16:23:15.745Z,23.30
2023-01-30T16:24:47.096Z,24.66
2023-01-30T16:26:28.904Z,17.68
2023-01-30T16:28:01.671Z,19.65
2023-01-30T16:29:32.939Z,25.37
2023-01-30T16:32:55.544Z,17.62
2023-01-30T16:34:27.177Z,21.51
2023-01-30T16:35:58.661Z,19.97
2023-01-30T16:37:29.969Z,22.64
2023-01-30T16:39:11.225Z,20.94
2023-01-30T16:40:57.557Z,22.96
2023-01-30T16:42:43.879Z,25.30
2023-01-30T16:44:25.233Z,21.48
2023-01-30T16:46:01.740Z,21.71
2023-01-30T16:47:33.115Z,20.48
2023-01-30T16:49:04.466Z,15.81
2023-01-30T16:50:36.043Z,17.48
2023-01-30T16:52:07.729Z,21.11
2023-01-30T16:53:39.241Z,19.34
2023-01-30T16:55:10.754Z,24.83
2023-01-30T16:56:42.158Z,19.88
2023-01-30T16:58:33.484Z,22.57
2023-01-30T17:00:04.875Z,18.33
2023-01-30T17:01:41.542Z,21.95
2023-01-30T17:03:13.267Z,24.40
2023-01-30T17:04:44.604Z,26.02
2023-01-30T17:06:16.044Z,23.33
2023-01-30T17:07:52.622Z,27.35
2023-01-30T17:09:24.020Z,20.22
2023-01-30T17:11:10.357Z,19.99
2023-01-30T17:12:56.718Z,20.89
2023-01-30T17:14:28.081Z,21.45
2023-01-30T17:15:59.547Z,22.66
2023-01-30T17:17:30.979Z,18.66
2023-01-30T17:19:02.366Z,20.93
2023-01-30T17:20:43.704Z,20.30
2023-01-30T17:22:20.107Z,19.27
2023-01-30T17:23:56.431Z,20.26
2023-01-30T17:25:46.613Z,20.19
2023-01-30T17:27:28.422Z,20.79
2023-01-30T17:28:59.827Z,22.70
2023-01-30T17:30:41.900Z,23.90
2023-01-30T17:32:13.707Z,21.59
2023-01-30T17:34:10.355Z,22.46
2023-01-30T17:35:41.607Z,26.07
2023-01-30T17:37:13.071Z,22.22
2023-01-30T17:38:44.508Z,20.81
2023-01-30T17:40:25.877Z,19.60
2023-01-30T17:42:07.251Z,24.13
2023-01-30T17:43:49.917Z,21.70
2023-01-30T17:45:22.221Z,27.62
2023-01-30T17:47:09.120Z,25.70
2023-01-30T17:48:55.601Z,21.45
2023-01-30T17:50:48.329Z,20.80
2023-01-30T17:52:19.724Z,22.62
2023-01-30T17:54:06.388Z,26.39
2023-01-30T17:55:47.695Z,20.17
2023-01-30T17:57:24.294Z,24.75
2023-01-30T17:58:55.623Z,20.12
2023-01-30T18:00:31.873Z,21.60
2023-01-30T18:02:28.185Z,22.21
2023-01-30T18:04:00.067Z,20.95
2023-01-30T18:05:43.105Z,23.42
2023-01-30T18:08:00.819Z,26.98
2023-01-30T18:09:33.222Z,25.37
2023-01-30T18:11:15.725Z,20.38
2023-01-30T18:13:00.414Z,20.83
2023-01-30T18:14:37.069Z,23.71
2023-01-30T18:16:08.518Z,21.22
2023-01-30T18:17:47.404Z,25.24
2023-01-30T18:19:35.371Z,25.67
2023-01-30T18:21:08.944Z,27.72
2023-01-30T18:22:41.476Z,27.71
2023-01-30T18:24:13.169Z,21.57
2023-01-30T18:28:15.135Z,26.96
2023-01-30T18:29:47.277Z,26.96
2023-01-30T18:31:18.847Z,17.44
2023-01-30T18:32:53.322Z,24.03
2023-01-30T18:34:25.320Z,22.79
2023-01-30T18:35:56.822Z,22.27
2023-01-30T18:37:28.555Z,25.13
2023-01-30T18:39:14.410Z,27.94
2023-01-30T18:40:45.838Z,27.22
2023-01-30T18:42:17.441Z,26.00
2023-01-30T18:43:48.727Z,23.26
2023-01-30T18:45:19.968Z,23.25
2023-01-30T18:47:01.318Z,26.74
2023-01-30T18:48:32.742Z,25.96
2023-01-30T18:50:14.147Z,22.62
2023-01-30T18:51:45.933Z,20.24
2023-01-30T18:53:28.188Z,19.23
2023-01-30T18:54:59.578Z,20.30
2023-01-30T18:56:31.025Z,26.33
2023-01-30T18:58:02.677Z,26.23
2023-01-30T18:59:34.401Z,26.04
2023-01-30T19:01:05.821Z,17.55
2023-01-30T19:02:37.554Z,22.91
2023-01-30T19:04:09.010Z,21.16
2023-01-30T19:05:40.585Z,17.07
2023-01-30T19:07:18.135Z,19.11
2023-01-30T19:09:18.784Z,20.14
2023-01-30T19:10:50.368Z,19.21
2023-01-30T19:12:21.780Z,14.86
2023-01-30T19:13:53.254Z,21.55
2023-01-30T19:15:24.680Z,23.92
2023-01-30T19:16:56.024Z,24.81
2023-01-30T19:18:27.591Z,20.45
2023-01-30T19:19:58.843Z,20.25
2023-01-30T19:21:30.334Z,20.98
2023-01-30T19:23:06.795Z,25.29
2023-01-30T19:24:49.611Z,23.99
2023-01-30T19:26:21.390Z,27.29
2023-01-30T19:27:54.469Z,25.16
2023-01-30T19:29:27.108Z,28.22
2023-01-30T19:30:59.025Z,19.05
2023-01-30T19:32:32.435Z,20.36
2023-01-30T19:34:03.733Z,14.93
2023-01-30T19:35:35.202Z,23.36
2023-01-30T19:37:06.791Z,18.31
2023-01-30T19:38:53.294Z,18.52
2023-01-30T19:40:44.115Z,21.54
2023-01-30T19:42:26.455Z,20.29
2023-01-30T19:44:18.207Z,24.48
2023-01-30T19:45:49.482Z,26.53
2023-01-30T19:47:21.228Z,23.85
2023-01-30T19:48:52.921Z,25.40
2023-01-30T19:50:34.526Z,26.05
2023-01-30T19:52:07.841Z,27.30
2023-01-30T19:53:39.150Z,25.55
2023-01-30T19:55:10.396Z,32.24
2023-01-30T19:57:01.879Z,27.61
2023-01-30T20:00:59.611Z,31.07
2023-01-30T20:02:31.358Z,28.42
2023-01-30T20:04:13.985Z,30.87
2023-01-30T20:05:56.928Z,32.28
2023-01-30T20:07:28.305Z,28.15